sensor_id;sensor_type;location;lat;lon;timestamp;pressure;altitude;pressure_sealevel;temperature;humidity
40245;BME280;25963;42.694;23.600;2023-03-15T00:00:39;94281.31;;;3.09;63.62
40245;BME280;25963;42.694;23.600;2023-03-15T00:03:07;94288.75;;;3.12;63.76
40245;BME280;25963;42.694;23.600;2023-03-15T00:05:34;94284.97;;;3.15;61.87
40245;BME280;25963;42.694;23.600;2023-03-15T00:08:01;94281.13;;;3.11;62.01
40245;BME280;25963;42.694;23.600;2023-03-15T00:10:28;94280.50;;;3.02;61.63
40245;BME280;25963;42.694;23.600;2023-03-15T00:12:54;94281.31;;;3.09;59.70
40245;BME280;25963;42.694;23.600;2023-03-15T00:15:19;94270.13;;;3.15;60.83
40245;BME280;25963;42.694;23.600;2023-03-15T00:17:45;94280.13;;;3.05;60.60
40245;BME280;25963;42.694;23.600;2023-03-15T00:20:11;94278.69;;;3.03;60.17
40245;BME280;25963;42.694;23.600;2023-03-15T00:22:37;94282.53;;;3.13;61.54
40245;BME280;25963;42.694;23.600;2023-03-15T00:25:03;94273.75;;;3.14;62.84
40245;BME280;25963;42.694;23.600;2023-03-15T00:27:28;94279.72;;;3.08;61.44
40245;BME280;25963;42.694;23.600;2023-03-15T00:29:53;94275.41;;;2.87;63.25
40245;BME280;25963;42.694;23.600;2023-03-15T00:32:19;94263.06;;;2.74;63.96
40245;BME280;25963;42.694;23.600;2023-03-15T00:34:45;94259.72;;;2.81;63.75
40245;BME280;25963;42.694;23.600;2023-03-15T00:37:15;94251.69;;;2.76;63.81
40245;BME280;25963;42.694;23.600;2023-03-15T00:39:41;94256.31;;;2.80;64.13
40245;BME280;25963;42.694;23.600;2023-03-15T00:42:10;94256.81;;;2.69;63.38
40245;BME280;25963;42.694;23.600;2023-03-15T00:44:42;94253.41;;;2.68;64.68
40245;BME280;25963;42.694;23.600;2023-03-15T00:47:12;94245.41;;;2.63;64.54
40245;BME280;25963;42.694;23.600;2023-03-15T00:49:39;94250.59;;;2.63;64.57
40245;BME280;25963;42.694;23.600;2023-03-15T00:52:06;94248.59;;;2.65;64.95
40245;BME280;25963;42.694;23.600;2023-03-15T00:54:32;94246.88;;;2.51;64.84
40245;BME280;25963;42.694;23.600;2023-03-15T00:56:59;94234.06;;;2.21;65.77
40245;BME280;25963;42.694;23.600;2023-03-15T00:59:24;94238.53;;;2.27;67.38
40245;BME280;25963;42.694;23.600;2023-03-15T01:01:50;94234.31;;;2.26;66.61
40245;BME280;25963;42.694;23.600;2023-03-15T01:04:15;94238.66;;;2.19;67.48
40245;BME280;25963;42.694;23.600;2023-03-15T01:06:41;94241.88;;;2.21;66.53
40245;BME280;25963;42.694;23.600;2023-03-15T01:09:10;94234.97;;;2.07;67.40
40245;BME280;25963;42.694;23.600;2023-03-15T01:11:35;94236.44;;;2.16;68.32
40245;BME280;25963;42.694;23.600;2023-03-15T01:14:01;94226.16;;;2.08;68.90
40245;BME280;25963;42.694;23.600;2023-03-15T01:16:35;94228.50;;;2.03;68.88
40245;BME280;25963;42.694;23.600;2023-03-15T01:19:01;94228.13;;;2.06;70.21
40245;BME280;25963;42.694;23.600;2023-03-15T01:21:27;94228.91;;;1.78;71.99
40245;BME280;25963;42.694;23.600;2023-03-15T01:23:53;94217.19;;;1.89;71.88
40245;BME280;25963;42.694;23.600;2023-03-15T01:26:19;94218.56;;;1.64;73.11
40245;BME280;25963;42.694;23.600;2023-03-15T01:28:45;94207.34;;;1.63;73.43
40245;BME280;25963;42.694;23.600;2023-03-15T01:31:19;94214.78;;;1.66;73.22
40245;BME280;25963;42.694;23.600;2023-03-15T01:33:46;94207.09;;;1.79;73.26
40245;BME280;25963;42.694;23.600;2023-03-15T01:36:12;94205.88;;;1.75;73.39
40245;BME280;25963;42.694;23.600;2023-03-15T01:38:37;94195.72;;;1.80;74.20
40245;BME280;25963;42.694;23.600;2023-03-15T01:41:03;94198.50;;;1.79;74.08
40245;BME280;25963;42.694;23.600;2023-03-15T01:43:30;94191.16;;;1.82;74.43
40245;BME280;25963;42.694;23.600;2023-03-15T01:49:00;94189.66;;;1.95;74.26
40245;BME280;25963;42.694;23.600;2023-03-15T01:51:36;94191.19;;;1.89;74.64
40245;BME280;25963;42.694;23.600;2023-03-15T01:54:14;94194.34;;;1.85;75.76
40245;BME280;25963;42.694;23.600;2023-03-15T01:56:51;94190.16;;;1.83;75.30
40245;BME280;25963;42.694;23.600;2023-03-15T01:59:26;94190.25;;;1.97;75.06
40245;BME280;25963;42.694;23.600;2023-03-15T02:01:54;94196.13;;;2.05;75.25
40245;BME280;25963;42.694;23.600;2023-03-15T02:04:24;94184.91;;;2.05;76.20
40245;BME280;25963;42.694;23.600;2023-03-15T02:06:55;94180.75;;;2.11;74.64
40245;BME280;25963;42.694;23.600;2023-03-15T02:10:12;94179.78;;;2.18;73.25
40245;BME280;25963;42.694;23.600;2023-03-15T02:12:12;94172.63;;;2.20;74.00
40245;BME280;25963;42.694;23.600;2023-03-15T02:14:38;94166.66;;;2.26;72.44
40245;BME280;25963;42.694;23.600;2023-03-15T02:17:05;94157.63;;;2.22;72.68
40245;BME280;25963;42.694;23.600;2023-03-15T02:19:59;94155.66;;;2.24;73.42
40245;BME280;25963;42.694;23.600;2023-03-15T02:23:04;94149.06;;;2.28;73.57
40245;BME280;25963;42.694;23.600;2023-03-15T02:28:00;94137.88;;;2.35;74.82
40245;BME280;25963;42.694;23.600;2023-03-15T02:30:28;94144.53;;;2.44;73.70
40245;BME280;25963;42.694;23.600;2023-03-15T02:32:53;94153.22;;;2.58;74.41
40245;BME280;25963;42.694;23.600;2023-03-15T02:35:24;94150.25;;;2.61;71.94
40245;BME280;25963;42.694;23.600;2023-03-15T02:37:49;94132.94;;;2.46;72.58
40245;BME280;25963;42.694;23.600;2023-03-15T02:40:22;94132.16;;;2.53;72.61
40245;BME280;25963;42.694;23.600;2023-03-15T02:42:53;94132.19;;;2.59;70.62
40245;BME280;25963;42.694;23.600;2023-03-15T02:45:20;94128.81;;;2.65;69.95
40245;BME280;25963;42.694;23.600;2023-03-15T02:47:47;94121.41;;;2.69;68.83
40245;BME280;25963;42.694;23.600;2023-03-15T02:50:14;94127.88;;;2.73;67.95
40245;BME280;25963;42.694;23.600;2023-03-15T02:52:39;94123.06;;;2.77;68.57
40245;BME280;25963;42.694;23.600;2023-03-15T02:55:05;94122.47;;;2.81;69.41
40245;BME280;25963;42.694;23.600;2023-03-15T02:57:32;94124.47;;;2.72;70.65
40245;BME280;25963;42.694;23.600;2023-03-15T02:59:57;94137.09;;;2.76;69.88
40245;BME280;25963;42.694;23.600;2023-03-15T03:02:24;94125.00;;;2.61;70.50
40245;BME280;25963;42.694;23.600;2023-03-15T03:04:50;94126.41;;;2.64;71.10
40245;BME280;25963;42.694;23.600;2023-03-15T03:07:17;94127.22;;;2.64;71.79
40245;BME280;25963;42.694;23.600;2023-03-15T03:09:43;94122.00;;;2.64;71.91
40245;BME280;25963;42.694;23.600;2023-03-15T03:12:09;94124.00;;;2.62;72.12
40245;BME280;25963;42.694;23.600;2023-03-15T03:14:34;94125.53;;;2.50;73.23
40245;BME280;25963;42.694;23.600;2023-03-15T03:17:01;94114.91;;;2.45;74.25
40245;BME280;25963;42.694;23.600;2023-03-15T03:19:26;94104.81;;;2.28;75.38
40245;BME280;25963;42.694;23.600;2023-03-15T03:21:53;94099.41;;;2.30;76.68
40245;BME280;25963;42.694;23.600;2023-03-15T03:24:20;94103.38;;;2.19;76.78
40245;BME280;25963;42.694;23.600;2023-03-15T03:26:45;94101.03;;;2.03;77.09
40245;BME280;25963;42.694;23.600;2023-03-15T03:29:11;94101.63;;;1.98;77.71
40245;BME280;25963;42.694;23.600;2023-03-15T03:31:41;94082.41;;;1.99;77.04
40245;BME280;25963;42.694;23.600;2023-03-15T03:34:06;94090.53;;;1.83;78.28
40245;BME280;25963;42.694;23.600;2023-03-15T03:36:33;94087.59;;;1.93;78.52
40245;BME280;25963;42.694;23.600;2023-03-15T03:38:59;94087.72;;;1.85;78.74
40245;BME280;25963;42.694;23.600;2023-03-15T03:41:25;94085.13;;;1.85;77.98
40245;BME280;25963;42.694;23.600;2023-03-15T03:43:51;94079.34;;;1.61;78.67
40245;BME280;25963;42.694;23.600;2023-03-15T03:46:17;94086.78;;;1.64;79.13
40245;BME280;25963;42.694;23.600;2023-03-15T03:48:43;94079.84;;;1.71;78.75
40245;BME280;25963;42.694;23.600;2023-03-15T03:51:08;94081.31;;;1.80;79.08
40245;BME280;25963;42.694;23.600;2023-03-15T03:53:33;94073.56;;;1.59;79.80
40245;BME280;25963;42.694;23.600;2023-03-15T03:55:59;94079.22;;;1.69;78.79
40245;BME280;25963;42.694;23.600;2023-03-15T03:58:28;94078.47;;;1.75;79.53
40245;BME280;25963;42.694;23.600;2023-03-15T04:00:54;94074.66;;;1.71;80.46
40245;BME280;25963;42.694;23.600;2023-03-15T04:03:20;94072.22;;;1.70;80.28
40245;BME280;25963;42.694;23.600;2023-03-15T04:05:52;94072.19;;;1.63;83.56
40245;BME280;25963;42.694;23.600;2023-03-15T04:08:17;94077.94;;;1.58;82.52
40245;BME280;25963;42.694;23.600;2023-03-15T04:10:42;94074.91;;;1.55;83.68
40245;BME280;25963;42.694;23.600;2023-03-15T04:13:08;94075.94;;;1.32;85.17
40245;BME280;25963;42.694;23.600;2023-03-15T04:15:33;94080.78;;;1.14;85.26
40245;BME280;25963;42.694;23.600;2023-03-15T04:17:59;94073.16;;;1.12;81.24
40245;BME280;25963;42.694;23.600;2023-03-15T04:20:26;94070.69;;;1.26;81.66
40245;BME280;25963;42.694;23.600;2023-03-15T04:22:52;94059.78;;;1.16;81.30
40245;BME280;25963;42.694;23.600;2023-03-15T04:25:19;94068.09;;;1.26;81.83
40245;BME280;25963;42.694;23.600;2023-03-15T04:27:45;94059.84;;;1.22;80.27
40245;BME280;25963;42.694;23.600;2023-03-15T04:30:11;94061.47;;;1.23;80.41
40245;BME280;25963;42.694;23.600;2023-03-15T04:32:37;94064.28;;;1.28;80.10
40245;BME280;25963;42.694;23.600;2023-03-15T04:35:04;94059.00;;;1.15;81.04
40245;BME280;25963;42.694;23.600;2023-03-15T04:37:30;94057.88;;;1.24;81.95
40245;BME280;25963;42.694;23.600;2023-03-15T04:39:58;94065.19;;;1.14;84.04
40245;BME280;25963;42.694;23.600;2023-03-15T04:42:24;94056.78;;;1.12;82.43
40245;BME280;25963;42.694;23.600;2023-03-15T04:45:10;94055.41;;;1.16;84.12
40245;BME280;25963;42.694;23.600;2023-03-15T04:47:38;94053.91;;;1.28;86.44
40245;BME280;25963;42.694;23.600;2023-03-15T04:50:04;94062.00;;;1.40;87.36
40245;BME280;25963;42.694;23.600;2023-03-15T04:52:29;94053.22;;;1.41;85.34
40245;BME280;25963;42.694;23.600;2023-03-15T04:54:55;94052.78;;;1.37;86.53
40245;BME280;25963;42.694;23.600;2023-03-15T04:57:20;94064.41;;;1.42;86.18
40245;BME280;25963;42.694;23.600;2023-03-15T04:59:45;94062.91;;;1.54;88.19
40245;BME280;25963;42.694;23.600;2023-03-15T05:02:11;94071.19;;;1.64;86.21
40245;BME280;25963;42.694;23.600;2023-03-15T05:04:37;94063.66;;;1.48;86.53
40245;BME280;25963;42.694;23.600;2023-03-15T05:07:02;94065.75;;;1.59;86.09
40245;BME280;25963;42.694;23.600;2023-03-15T05:09:27;94068.56;;;1.64;84.80
40245;BME280;25963;42.694;23.600;2023-03-15T05:11:53;94072.03;;;1.71;85.62
40245;BME280;25963;42.694;23.600;2023-03-15T05:14:18;94066.50;;;1.81;85.02
40245;BME280;25963;42.694;23.600;2023-03-15T05:16:44;94065.59;;;1.95;85.42
40245;BME280;25963;42.694;23.600;2023-03-15T05:19:11;94069.69;;;2.11;82.77
40245;BME280;25963;42.694;23.600;2023-03-15T05:21:37;94062.31;;;2.63;79.21
40245;BME280;25963;42.694;23.600;2023-03-15T05:24:03;94060.06;;;3.41;72.45
40245;BME280;25963;42.694;23.600;2023-03-15T05:26:28;94057.59;;;4.12;67.10
40245;BME280;25963;42.694;23.600;2023-03-15T05:28:54;94054.50;;;4.42;66.39
40245;BME280;25963;42.694;23.600;2023-03-15T05:31:19;94045.00;;;4.61;65.22
40245;BME280;25963;42.694;23.600;2023-03-15T05:33:45;94045.31;;;4.85;64.74
40245;BME280;25963;42.694;23.600;2023-03-15T05:36:11;94048.31;;;5.20;63.51
40245;BME280;25963;42.694;23.600;2023-03-15T05:38:40;94052.13;;;5.49;62.57
40245;BME280;25963;42.694;23.600;2023-03-15T05:41:07;94048.88;;;5.79;62.77
40245;BME280;25963;42.694;23.600;2023-03-15T05:43:32;94047.66;;;6.06;60.78
40245;BME280;25963;42.694;23.600;2023-03-15T05:45:58;94037.72;;;5.90;61.24
40245;BME280;25963;42.694;23.600;2023-03-15T05:48:23;94032.59;;;6.02;61.09
40245;BME280;25963;42.694;23.600;2023-03-15T05:50:49;94045.47;;;5.78;62.17
40245;BME280;25963;42.694;23.600;2023-03-15T05:53:14;94048.78;;;5.67;63.40
40245;BME280;25963;42.694;23.600;2023-03-15T05:55:39;94042.69;;;5.48;65.41
40245;BME280;25963;42.694;23.600;2023-03-15T05:58:05;94048.53;;;5.18;66.76
40245;BME280;25963;42.694;23.600;2023-03-15T06:00:30;94038.88;;;5.19;68.34
40245;BME280;25963;42.694;23.600;2023-03-15T06:02:56;94027.91;;;5.03;69.77
40245;BME280;25963;42.694;23.600;2023-03-15T06:05:22;94025.16;;;4.92;69.90
40245;BME280;25963;42.694;23.600;2023-03-15T06:07:47;94030.28;;;5.05;69.38
40245;BME280;25963;42.694;23.600;2023-03-15T06:10:14;94035.94;;;5.09;70.29
40245;BME280;25963;42.694;23.600;2023-03-15T06:12:39;94041.53;;;5.12;68.57
40245;BME280;25963;42.694;23.600;2023-03-15T06:15:06;94037.81;;;5.26;68.62
40245;BME280;25963;42.694;23.600;2023-03-15T06:17:31;94055.50;;;5.56;65.51
40245;BME280;25963;42.694;23.600;2023-03-15T06:19:57;94054.50;;;5.57;64.00
40245;BME280;25963;42.694;23.600;2023-03-15T06:22:22;94051.38;;;5.42;63.39
40245;BME280;25963;42.694;23.600;2023-03-15T06:24:48;94056.31;;;5.57;62.64
40245;BME280;25963;42.694;23.600;2023-03-15T06:27:14;94055.56;;;5.75;61.27
40245;BME280;25963;42.694;23.600;2023-03-15T06:29:40;94048.75;;;6.17;60.71
40245;BME280;25963;42.694;23.600;2023-03-15T06:32:07;94046.84;;;6.79;58.25
40245;BME280;25963;42.694;23.600;2023-03-15T06:34:33;94053.50;;;6.94;54.72
40245;BME280;25963;42.694;23.600;2023-03-15T06:36:58;94045.84;;;6.62;54.33
40245;BME280;25963;42.694;23.600;2023-03-15T06:39:24;94042.94;;;6.52;56.44
40245;BME280;25963;42.694;23.600;2023-03-15T06:41:50;94028.81;;;7.01;58.13
40245;BME280;25963;42.694;23.600;2023-03-15T06:44:19;94020.38;;;7.53;54.77
40245;BME280;25963;42.694;23.600;2023-03-15T06:46:44;94016.88;;;7.83;52.71
40245;BME280;25963;42.694;23.600;2023-03-15T06:49:10;94014.13;;;7.89;50.54
40245;BME280;25963;42.694;23.600;2023-03-15T06:51:36;94020.75;;;7.80;52.59
40245;BME280;25963;42.694;23.600;2023-03-15T06:54:02;94011.88;;;7.69;51.57
40245;BME280;25963;42.694;23.600;2023-03-15T06:56:28;94014.25;;;7.71;51.95
40245;BME280;25963;42.694;23.600;2023-03-15T06:58:53;94007.72;;;7.50;51.11
40245;BME280;25963;42.694;23.600;2023-03-15T07:01:20;94007.94;;;7.37;52.72
40245;BME280;25963;42.694;23.600;2023-03-15T07:03:47;94012.16;;;7.38;53.17
40245;BME280;25963;42.694;23.600;2023-03-15T07:06:12;93998.56;;;7.29;53.00
40245;BME280;25963;42.694;23.600;2023-03-15T07:08:37;94006.09;;;7.25;54.09
40245;BME280;25963;42.694;23.600;2023-03-15T07:11:04;94013.81;;;7.20;54.26
40245;BME280;25963;42.694;23.600;2023-03-15T07:13:30;94030.84;;;6.99;53.44
40245;BME280;25963;42.694;23.600;2023-03-15T07:15:56;94015.22;;;6.93;56.21
40245;BME280;25963;42.694;23.600;2023-03-15T07:18:22;94017.44;;;7.07;56.18
40245;BME280;25963;42.694;23.600;2023-03-15T07:20:56;94013.75;;;7.27;55.50
40245;BME280;25963;42.694;23.600;2023-03-15T07:23:22;94016.56;;;7.25;56.48
40245;BME280;25963;42.694;23.600;2023-03-15T07:25:47;94031.22;;;7.45;55.34
40245;BME280;25963;42.694;23.600;2023-03-15T07:28:13;94029.63;;;7.44;55.31
40245;BME280;25963;42.694;23.600;2023-03-15T07:30:39;94020.59;;;7.40;56.68
40245;BME280;25963;42.694;23.600;2023-03-15T07:33:04;94030.34;;;7.74;56.30
40245;BME280;25963;42.694;23.600;2023-03-15T07:35:31;94019.03;;;7.62;56.96
40245;BME280;25963;42.694;23.600;2023-03-15T07:37:57;94009.94;;;7.76;55.59
40245;BME280;25963;42.694;23.600;2023-03-15T07:40:22;94004.78;;;8.05;56.08
40245;BME280;25963;42.694;23.600;2023-03-15T07:42:50;94001.47;;;7.98;55.22
40245;BME280;25963;42.694;23.600;2023-03-15T07:45:16;93996.19;;;8.21;56.84
40245;BME280;25963;42.694;23.600;2023-03-15T07:47:43;93988.34;;;8.10;54.56
40245;BME280;25963;42.694;23.600;2023-03-15T07:50:09;93977.47;;;8.30;54.66
40245;BME280;25963;42.694;23.600;2023-03-15T07:52:36;93967.97;;;8.40;54.33
40245;BME280;25963;42.694;23.600;2023-03-15T07:55:02;93976.69;;;8.69;53.49
40245;BME280;25963;42.694;23.600;2023-03-15T07:57:28;93972.72;;;8.55;50.77
40245;BME280;25963;42.694;23.600;2023-03-15T07:59:54;93990.25;;;8.38;50.00
40245;BME280;25963;42.694;23.600;2023-03-15T08:02:20;93991.38;;;8.54;51.87
40245;BME280;25963;42.694;23.600;2023-03-15T08:04:45;93994.72;;;8.78;50.47
40245;BME280;25963;42.694;23.600;2023-03-15T08:07:11;93976.72;;;9.15;52.89
40245;BME280;25963;42.694;23.600;2023-03-15T08:09:36;93971.72;;;9.47;49.91
40245;BME280;25963;42.694;23.600;2023-03-15T08:12:02;93969.63;;;9.32;51.93
40245;BME280;25963;42.694;23.600;2023-03-15T08:14:27;93965.66;;;9.80;48.00
40245;BME280;25963;42.694;23.600;2023-03-15T08:16:55;93964.03;;;9.96;46.00
40245;BME280;25963;42.694;23.600;2023-03-15T08:19:21;93955.69;;;9.66;47.17
40245;BME280;25963;42.694;23.600;2023-03-15T08:21:46;93945.41;;;9.47;46.61
40245;BME280;25963;42.694;23.600;2023-03-15T08:24:12;93934.69;;;9.88;46.41
40245;BME280;25963;42.694;23.600;2023-03-15T08:26:37;93934.63;;;10.04;45.90
40245;BME280;25963;42.694;23.600;2023-03-15T08:29:03;93938.19;;;9.93;47.20
40245;BME280;25963;42.694;23.600;2023-03-15T08:31:28;93941.50;;;10.44;46.31
40245;BME280;25963;42.694;23.600;2023-03-15T08:33:54;93935.78;;;10.52;50.29
40245;BME280;25963;42.694;23.600;2023-03-15T08:36:19;93928.16;;;11.05;48.60
40245;BME280;25963;42.694;23.600;2023-03-15T08:38:45;93928.19;;;11.42;48.98
40245;BME280;25963;42.694;23.600;2023-03-15T08:41:10;93932.66;;;11.74;47.87
40245;BME280;25963;42.694;23.600;2023-03-15T08:43:35;93940.13;;;11.82;42.22
40245;BME280;25963;42.694;23.600;2023-03-15T08:46:01;93945.97;;;11.52;40.97
40245;BME280;25963;42.694;23.600;2023-03-15T08:48:27;93953.63;;;10.94;42.95
40245;BME280;25963;42.694;23.600;2023-03-15T08:50:52;93953.03;;;10.87;43.30
40245;BME280;25963;42.694;23.600;2023-03-15T08:53:17;93953.44;;;10.52;44.42
40245;BME280;25963;42.694;23.600;2023-03-15T08:55:43;93957.72;;;10.80;47.79
40245;BME280;25963;42.694;23.600;2023-03-15T08:58:08;93949.66;;;10.92;46.60
40245;BME280;25963;42.694;23.600;2023-03-15T09:00:34;93942.13;;;11.06;45.89
40245;BME280;25963;42.694;23.600;2023-03-15T09:02:59;93944.56;;;11.12;42.40
40245;BME280;25963;42.694;23.600;2023-03-15T09:05:25;93940.69;;;11.52;46.78
40245;BME280;25963;42.694;23.600;2023-03-15T09:07:51;93939.69;;;11.63;44.01
40245;BME280;25963;42.694;23.600;2023-03-15T09:10:19;93937.94;;;12.17;48.92
40245;BME280;25963;42.694;23.600;2023-03-15T09:12:48;93936.72;;;12.29;43.82
40245;BME280;25963;42.694;23.600;2023-03-15T09:15:15;93928.72;;;11.77;41.61
40245;BME280;25963;42.694;23.600;2023-03-15T09:17:41;93930.28;;;11.73;45.14
40245;BME280;25963;42.694;23.600;2023-03-15T09:20:10;93933.34;;;11.92;42.81
40245;BME280;25963;42.694;23.600;2023-03-15T09:22:40;93933.97;;;12.14;43.78
40245;BME280;25963;42.694;23.600;2023-03-15T09:25:06;93928.69;;;12.09;41.41
40245;BME280;25963;42.694;23.600;2023-03-15T09:27:33;93933.72;;;12.16;43.11
40245;BME280;25963;42.694;23.600;2023-03-15T09:29:58;93932.19;;;11.82;41.91
40245;BME280;25963;42.694;23.600;2023-03-15T09:32:24;93935.34;;;11.79;42.96
40245;BME280;25963;42.694;23.600;2023-03-15T09:34:49;93938.06;;;11.52;43.06
40245;BME280;25963;42.694;23.600;2023-03-15T09:37:15;93925.97;;;11.94;44.69
40245;BME280;25963;42.694;23.600;2023-03-15T09:39:41;93924.16;;;12.04;42.05
40245;BME280;25963;42.694;23.600;2023-03-15T09:42:16;93923.91;;;12.06;41.43
40245;BME280;25963;42.694;23.600;2023-03-15T09:44:46;93909.91;;;11.68;41.87
40245;BME280;25963;42.694;23.600;2023-03-15T09:47:37;93912.69;;;11.51;42.03
40245;BME280;25963;42.694;23.600;2023-03-15T09:50:16;93907.63;;;11.82;43.54
40245;BME280;25963;42.694;23.600;2023-03-15T09:52:48;93914.06;;;11.96;42.39
40245;BME280;25963;42.694;23.600;2023-03-15T09:58:03;93923.81;;;11.91;42.17
40245;BME280;25963;42.694;23.600;2023-03-15T10:00:47;93916.06;;;12.26;41.67
40245;BME280;25963;42.694;23.600;2023-03-15T10:06:14;93910.34;;;12.50;41.21
40245;BME280;25963;42.694;23.600;2023-03-15T10:08:44;93906.34;;;12.42;41.51
40245;BME280;25963;42.694;23.600;2023-03-15T10:14:06;93907.53;;;12.87;42.16
40245;BME280;25963;42.694;23.600;2023-03-15T10:16:44;93906.44;;;12.83;40.67
40245;BME280;25963;42.694;23.600;2023-03-15T10:19:20;93909.41;;;12.97;39.93
40245;BME280;25963;42.694;23.600;2023-03-15T10:28:04;93895.41;;;13.01;41.78
40245;BME280;25963;42.694;23.600;2023-03-15T10:30:38;93888.25;;;13.02;41.04
40245;BME280;25963;42.694;23.600;2023-03-15T10:33:29;93886.28;;;12.51;39.46
40245;BME280;25963;42.694;23.600;2023-03-15T10:35:57;93893.94;;;12.48;39.40
40245;BME280;25963;42.694;23.600;2023-03-15T10:38:24;93887.34;;;12.55;40.21
40245;BME280;25963;42.694;23.600;2023-03-15T10:40:52;93888.72;;;12.73;42.26
40245;BME280;25963;42.694;23.600;2023-03-15T10:43:24;93877.88;;;12.85;41.77
40245;BME280;25963;42.694;23.600;2023-03-15T10:48:34;93867.78;;;12.62;39.87
40245;BME280;25963;42.694;23.600;2023-03-15T10:51:04;93871.41;;;12.30;40.78
40245;BME280;25963;42.694;23.600;2023-03-15T10:53:30;93866.25;;;11.98;40.13
40245;BME280;25963;42.694;23.600;2023-03-15T10:55:59;93877.44;;;12.20;39.40
40245;BME280;25963;42.694;23.600;2023-03-15T10:58:27;93868.75;;;12.30;41.25
40245;BME280;25963;42.694;23.600;2023-03-15T11:03:25;93867.97;;;12.29;40.43
40245;BME280;25963;42.694;23.600;2023-03-15T11:05:53;93869.56;;;12.30;41.97
40245;BME280;25963;42.694;23.600;2023-03-15T11:08:22;93877.28;;;12.52;42.92
40245;BME280;25963;42.694;23.600;2023-03-15T11:10:57;93878.13;;;12.63;40.71
40245;BME280;25963;42.694;23.600;2023-03-15T11:13:25;93880.50;;;12.70;41.06
40245;BME280;25963;42.694;23.600;2023-03-15T11:19:14;93879.38;;;12.40;39.92
40245;BME280;25963;42.694;23.600;2023-03-15T11:21:41;93871.44;;;12.40;45.50
40245;BME280;25963;42.694;23.600;2023-03-15T11:24:27;93883.38;;;12.48;44.05
40245;BME280;25963;42.694;23.600;2023-03-15T11:26:54;93877.22;;;12.32;41.10
40245;BME280;25963;42.694;23.600;2023-03-15T11:29:24;93875.41;;;12.43;43.52
40245;BME280;25963;42.694;23.600;2023-03-15T11:31:51;93873.59;;;12.53;43.01
40245;BME280;25963;42.694;23.600;2023-03-15T11:34:57;93873.09;;;12.67;42.45
40245;BME280;25963;42.694;23.600;2023-03-15T11:37:32;93874.94;;;12.66;40.47
40245;BME280;25963;42.694;23.600;2023-03-15T11:40:23;93867.50;;;12.53;43.88
40245;BME280;25963;42.694;23.600;2023-03-15T11:42:54;93871.25;;;12.72;42.66
40245;BME280;25963;42.694;23.600;2023-03-15T11:48:03;93860.44;;;12.89;42.69
40245;BME280;25963;42.694;23.600;2023-03-15T11:50:32;93855.41;;;13.03;40.44
40245;BME280;25963;42.694;23.600;2023-03-15T11:52:58;93859.41;;;13.11;40.71
40245;BME280;25963;42.694;23.600;2023-03-15T11:55:28;93853.34;;;13.26;40.27
40245;BME280;25963;42.694;23.600;2023-03-15T11:57:54;93858.59;;;13.20;38.98
40245;BME280;25963;42.694;23.600;2023-03-15T12:03:32;93840.50;;;13.94;41.01
40245;BME280;25963;42.694;23.600;2023-03-15T12:08:45;93838.78;;;14.24;38.23
40245;BME280;25963;42.694;23.600;2023-03-15T12:16:28;93821.44;;;13.82;38.50
40245;BME280;25963;42.694;23.600;2023-03-15T12:18:58;93806.13;;;13.68;37.29
40245;BME280;25963;42.694;23.600;2023-03-15T12:21:32;93819.31;;;13.79;37.77
40245;BME280;25963;42.694;23.600;2023-03-15T12:24:02;93821.47;;;13.72;38.76
40245;BME280;25963;42.694;23.600;2023-03-15T12:26:45;93828.88;;;13.69;37.46
40245;BME280;25963;42.694;23.600;2023-03-15T12:29:32;93820.97;;;13.64;39.46
40245;BME280;25963;42.694;23.600;2023-03-15T12:34:33;93817.28;;;13.45;38.46
40245;BME280;25963;42.694;23.600;2023-03-15T12:37:07;93820.47;;;13.42;40.03
40245;BME280;25963;42.694;23.600;2023-03-15T12:39:46;93820.72;;;13.45;37.88
40245;BME280;25963;42.694;23.600;2023-03-15T12:53:02;93793.50;;;14.10;36.86
40245;BME280;25963;42.694;23.600;2023-03-15T12:55:31;93796.78;;;14.41;41.47
40245;BME280;25963;42.694;23.600;2023-03-15T12:57:59;93797.66;;;14.31;38.31
40245;BME280;25963;42.694;23.600;2023-03-15T13:00:28;93794.69;;;14.38;38.80
40245;BME280;25963;42.694;23.600;2023-03-15T13:03:19;93796.44;;;14.63;37.79
40245;BME280;25963;42.694;23.600;2023-03-15T13:06:08;93800.28;;;14.36;37.80
40245;BME280;25963;42.694;23.600;2023-03-15T13:11:19;93794.97;;;13.77;39.16
40245;BME280;25963;42.694;23.600;2023-03-15T13:13:54;93798.53;;;14.11;39.03
40245;BME280;25963;42.694;23.600;2023-03-15T13:16:35;93801.59;;;14.39;38.51
40245;BME280;25963;42.694;23.600;2023-03-15T13:21:39;93808.81;;;14.23;38.70
40245;BME280;25963;42.694;23.600;2023-03-15T13:26:59;93800.88;;;13.33;38.48
40245;BME280;25963;42.694;23.600;2023-03-15T13:29:30;93805.66;;;13.00;38.54
40245;BME280;25963;42.694;23.600;2023-03-15T13:32:12;93811.44;;;12.61;38.82
40245;BME280;25963;42.694;23.600;2023-03-15T13:34:38;93809.06;;;12.80;39.45
40245;BME280;25963;42.694;23.600;2023-03-15T13:37:14;93812.22;;;12.51;39.90
40245;BME280;25963;42.694;23.600;2023-03-15T13:39:55;93805.38;;;12.76;41.70
40245;BME280;25963;42.694;23.600;2023-03-15T13:42:23;93802.75;;;12.96;40.33
40245;BME280;25963;42.694;23.600;2023-03-15T13:45:11;93805.91;;;12.88;40.72
40245;BME280;25963;42.694;23.600;2023-03-15T13:47:39;93796.41;;;12.92;39.98
40245;BME280;25963;42.694;23.600;2023-03-15T13:50:05;93801.66;;;13.13;41.50
40245;BME280;25963;42.694;23.600;2023-03-15T13:52:31;93808.56;;;12.98;42.24
40245;BME280;25963;42.694;23.600;2023-03-15T13:54:58;93810.16;;;13.05;38.98
40245;BME280;25963;42.694;23.600;2023-03-15T13:57:23;93810.94;;;13.20;40.12
40245;BME280;25963;42.694;23.600;2023-03-15T13:59:52;93816.78;;;13.22;39.14
40245;BME280;25963;42.694;23.600;2023-03-15T14:05:18;93815.69;;;13.23;49.33
40245;BME280;25963;42.694;23.600;2023-03-15T14:10:29;93804.84;;;12.74;49.18
40245;BME280;25963;42.694;23.600;2023-03-15T14:12:57;93810.41;;;12.72;52.17